Terminal Aerodrome Forecast
Issued by NWS

Home | Current Version | Previous Version | Text Only | Print | Product List | Glossary On
Versions: 1 2 3 4 5 6 7 8 9 10 11 12
000
FTUS42 TJSJ 252330
TAFJSJ
TAF
TJSJ 252330Z 2600/2624 16006KT P6SM FEW026 SCT060
     FM261300 08012KT P6SM SCT025
     FM262300 10006KT P6SM SCT030=

USA.gov is the U.S. government's official web portal to all federal, state and local government web resources and services.